Time;durP1;ratioP1;P1;durP2;ratioP2;P2;SDS_P1;SDS_P2;PMS_P1;PMS_P2;Temp;Humidity;BMP_temperature;BMP_pressure;BME280_temperature;BME280_humidity;BME280_pressure;Samples;Min_cycle;Max_cycle;Signal;HPM_P1;HPM_P2
2022/04/06 00:00:12;;;;;;;1.02;1.02;;;8.40;99.90;;;;;;5012722;28;20033;-73
2022/04/06 00:02:39;;;;;;;2.05;1.48;;;8.40;99.90;;;;;;4995594;28;20052;-73
2022/04/06 00:05:10;;;;;;;1.50;1.50;;;8.40;99.90;;;;;;4996620;28;20037;-73
2022/04/06 00:07:36;;;;;;;7.15;2.38;;;8.40;99.90;;;;;;5007878;28;20389;-73
2022/04/06 00:10:04;;;;;;;1.00;1.00;;;8.40;99.90;;;;;;5008298;28;20042;-73
2022/04/06 00:12:30;;;;;;;7.53;2.03;;;8.40;99.90;;;;;;4996826;28;20046;-73
2022/04/06 00:14:56;;;;;;;2.15;2.05;;;8.40;99.90;;;;;;5005437;28;20046;-73
2022/04/06 00:17:21;;;;;;;1.00;1.00;;;8.40;99.90;;;;;;4995182;28;20040;-73
2022/04/06 00:19:47;;;;;;;1.15;1.15;;;8.40;99.90;;;;;;4984207;28;20049;-74
2022/04/06 00:22:12;;;;;;;1.52;1.52;;;8.40;99.90;;;;;;4980312;28;20036;-74
2022/04/06 00:24:38;;;;;;;8.88;1.65;;;8.40;99.90;;;;;;4993464;28;20143;-73
2022/04/06 00:27:04;;;;;;;2.05;1.95;;;8.40;99.90;;;;;;5002615;28;20410;-74
2022/04/06 00:29:30;;;;;;;1.50;1.40;;;8.40;99.90;;;;;;4990899;28;20037;-73
2022/04/06 00:31:56;;;;;;;2.78;2.58;;;8.40;99.90;;;;;;5013324;28;20051;-73
2022/04/06 00:35:28;;;;;;;1.65;1.55;;;8.40;99.90;;;;;;5012425;28;20413;-73
2022/04/06 00:37:07;;;;;;;3.47;2.10;;;8.40;99.90;;;;;;5009461;28;20103;-73
2022/04/06 00:39:33;;;;;;;1.52;1.52;;;8.40;99.90;;;;;;5000335;28;20073;-74
2022/04/06 00:41:59;;;;;;;5.55;2.70;;;8.40;99.90;;;;;;5012560;28;20033;-73
2022/04/06 00:44:26;;;;;;;1.60;1.50;;;8.40;99.90;;;;;;5002695;28;20041;-73
2022/04/06 00:46:52;;;;;;;8.13;3.05;;;8.40;99.90;;;;;;5006913;28;20061;-73
2022/04/06 00:49:18;;;;;;;1.95;1.85;;;8.50;99.90;;;;;;5013083;28;20037;-74
2022/04/06 00:51:46;;;;;;;1.65;1.55;;;8.50;99.90;;;;;;5012430;28;20045;-73
2022/04/06 00:54:14;;;;;;;3.28;2.88;;;8.50;99.90;;;;;;4995919;28;20120;-73
2022/04/06 00:56:40;;;;;;;1.92;1.83;;;8.50;99.90;;;;;;4996641;28;20122;-74
2022/04/06 00:59:07;;;;;;;3.33;3.13;;;8.50;99.90;;;;;;4996237;28;20067;-74
2022/04/06 01:01:32;;;;;;;1.23;1.23;;;8.50;99.90;;;;;;4993117;28;20048;-74
2022/04/06 01:03:58;;;;;;;5.60;3.83;;;8.50;99.90;;;;;;5011887;28;20481;-74
2022/04/06 01:06:24;;;;;;;3.35;2.08;;;8.50;99.90;;;;;;4994272;28;20046;-74
2022/04/06 01:08:51;;;;;;;10.20;4.43;;;8.50;99.90;;;;;;5012096;28;20532;-73
2022/04/06 01:11:18;;;;;;;4.18;2.92;;;8.50;99.90;;;;;;5008881;28;20046;-74
2022/04/06 01:13:45;;;;;;;1.38;1.38;;;8.50;99.90;;;;;;5026449;28;20041;-74
2022/04/06 01:16:10;;;;;;;4.32;3.08;;;8.50;99.90;;;;;;5011396;28;20034;-73
2022/04/06 01:18:36;;;;;;;1.55;1.55;;;8.50;99.90;;;;;;4996115;28;20040;-74
2022/04/06 01:21:05;;;;;;;19.90;4.68;;;8.60;99.90;;;;;;4995461;28;20091;-74
2022/04/06 01:23:31;;;;;;;3.30;3.05;;;8.60;99.90;;;;;;4994873;28;20176;-73
2022/04/06 01:25:56;;;;;;;10.55;8.48;;;8.60;99.90;;;;;;5011869;28;20140;-73
2022/04/06 01:28:22;;;;;;;1.38;1.38;;;8.60;99.90;;;;;;5011669;28;20057;-74
2022/04/06 01:30:48;;;;;;;3.83;2.83;;;8.60;99.90;;;;;;4995340;28;20497;-73
2022/04/06 01:33:13;;;;;;;4.32;3.90;;;8.60;99.90;;;;;;5011475;28;20128;-73
2022/04/06 01:35:42;;;;;;;2.60;2.38;;;8.60;99.90;;;;;;5011348;28;20417;-73
2022/04/06 01:38:08;;;;;;;1.85;1.75;;;8.60;99.90;;;;;;5011673;28;20053;-72
2022/04/06 01:40:34;;;;;;;2.08;1.67;;;8.60;99.90;;;;;;5008489;28;20049;-73
2022/04/06 01:43:00;;;;;;;1.88;1.75;;;8.60;99.90;;;;;;4991819;28;20402;-73
2022/04/06 01:45:25;;;;;;;2.33;2.13;;;8.70;99.90;;;;;;4998369;28;20048;-72
2022/04/06 01:47:51;;;;;;;2.05;1.92;;;8.70;99.90;;;;;;5011817;28;20052;-73
2022/04/06 01:53:03;;;;;;;4.45;3.05;;;8.70;99.90;;;;;;5008529;28;20045;-73
2022/04/06 01:55:28;;;;;;;3.25;1.42;;;8.70;99.90;;;;;;4990628;28;20042;-73
2022/04/06 01:57:54;;;;;;;16.98;6.57;;;8.70;99.90;;;;;;4995327;28;20448;-73
2022/04/06 02:00:19;;;;;;;1.48;1.48;;;8.70;99.90;;;;;;4980487;28;20037;-73
2022/04/06 02:02:53;;;;;;;1.38;1.38;;;8.80;99.90;;;;;;5011435;28;20091;-73
2022/04/06 02:05:20;;;;;;;2.53;2.33;;;8.80;99.90;;;;;;5011376;28;20321;-73
2022/04/06 02:07:46;;;;;;;1.90;1.80;;;8.80;99.90;;;;;;4994308;28;20120;-73
2022/04/06 02:10:13;;;;;;;1.20;1.20;;;8.80;99.90;;;;;;4995591;28;20037;-73
2022/04/06 02:12:40;;;;;;;2.00;1.90;;;8.80;99.90;;;;;;5010456;28;20553;-73
2022/04/06 02:15:10;;;;;;;1.70;1.60;;;8.80;99.90;;;;;;5011047;28;20070;-73
2022/04/06 02:17:36;;;;;;;1.10;1.10;;;8.80;99.90;;;;;;5010249;28;20415;-73
2022/04/06 02:20:02;;;;;;;0.90;0.90;;;8.80;99.90;;;;;;4993134;28;20064;-73
2022/04/06 02:22:28;;;;;;;5.75;2.95;;;8.80;99.90;;;;;;4994684;28;20041;-73
2022/04/06 02:24:54;;;;;;;1.10;1.10;;;8.80;99.90;;;;;;4993162;28;20057;-73
2022/04/06 02:27:19;;;;;;;2.13;2.03;;;8.70;99.90;;;;;;4994849;28;20049;-73
2022/04/06 02:29:45;;;;;;;10.38;3.42;;;8.70;99.90;;;;;;4994246;28;20045;-73
2022/04/06 02:32:11;;;;;;;1.70;1.60;;;8.70;99.90;;;;;;5010980;28;20051;-73
2022/04/06 02:34:37;;;;;;;1.35;1.35;;;8.70;99.90;;;;;;4996245;28;20136;-73
2022/04/06 02:37:04;;;;;;;7.38;4.00;;;8.70;99.90;;;;;;5002625;28;20033;-73
2022/04/06 02:39:30;;;;;;;4.20;2.20;;;8.70;99.90;;;;;;5021654;28;20071;-73
2022/04/06 02:41:55;;;;;;;0.90;0.90;;;8.70;99.90;;;;;;5010349;28;20513;-73
2022/04/06 02:44:21;;;;;;;1.17;1.17;;;8.70;99.90;;;;;;4994654;28;20481;-73
2022/04/06 02:46:50;;;;;;;1.45;1.35;;;8.70;99.90;;;;;;5010263;28;20128;-73
2022/04/06 02:49:16;;;;;;;2.20;2.08;;;8.70;99.90;;;;;;5004160;28;20034;-73
2022/04/06 02:51:42;;;;;;;1.50;1.40;;;8.70;99.90;;;;;;5003882;28;20406;-74
2022/04/06 02:54:08;;;;;;;6.28;2.55;;;8.70;99.90;;;;;;5010777;28;20037;-74
2022/04/06 02:56:34;;;;;;;2.05;1.80;;;8.70;99.90;;;;;;5007972;28;20493;-73
2022/04/06 02:59:01;;;;;;;1.38;1.38;;;8.70;99.90;;;;;;5010120;28;20045;-73
2022/04/06 03:01:27;;;;;;;8.73;1.95;;;8.70;99.90;;;;;;4992983;28;20055;-73
2022/04/06 03:03:53;;;;;;;4.65;1.92;;;8.70;99.90;;;;;;5010390;28;20072;-73
2022/04/06 03:06:18;;;;;;;1.10;1.10;;;8.70;99.90;;;;;;5010182;28;20108;-73
2022/04/06 03:08:44;;;;;;;7.90;2.47;;;8.80;99.90;;;;;;5010362;28;20088;-73
2022/04/06 03:11:10;;;;;;;1.60;1.50;;;8.70;99.90;;;;;;4995301;28;20041;-73
2022/04/06 03:13:36;;;;;;;6.15;2.33;;;8.80;99.90;;;;;;5006850;28;20481;-73
2022/04/06 03:16:02;;;;;;;1.15;1.05;;;8.70;99.90;;;;;;5009854;28;20405;-73
2022/04/06 03:18:28;;;;;;;1.17;1.17;;;8.70;99.90;;;;;;5010363;28;20136;-73
2022/04/06 03:20:53;;;;;;;1.98;1.88;;;8.70;99.90;;;;;;5010663;28;20049;-73
2022/04/06 03:23:19;;;;;;;1.00;1.00;;;8.70;99.90;;;;;;4993411;28;20041;-73
2022/04/06 03:25:44;;;;;;;1.52;1.42;;;8.70;99.90;;;;;;5010009;28;20115;-73
2022/04/06 03:28:10;;;;;;;1.05;1.05;;;8.70;99.90;;;;;;5013919;28;20037;-73
2022/04/06 03:30:37;;;;;;;9.65;2.83;;;8.70;99.90;;;;;;5013214;28;20448;-72
2022/04/06 03:33:03;;;;;;;4.50;2.00;;;8.70;99.90;;;;;;5013575;28;20037;-72
2022/04/06 03:35:29;;;;;;;1.98;1.60;;;8.70;99.90;;;;;;4997633;28;20042;-72
2022/04/06 03:37:55;;;;;;;2.15;1.83;;;8.70;99.90;;;;;;4983485;28;20368;-72
2022/04/06 03:40:21;;;;;;;3.15;2.53;;;8.70;99.90;;;;;;5003220;28;20038;-73
2022/04/06 03:42:46;;;;;;;1.83;1.70;;;8.70;99.90;;;;;;5010114;28;20120;-73
2022/04/06 03:45:12;;;;;;;1.70;1.60;;;8.70;99.90;;;;;;4995803;28;20073;-72
2022/04/06 03:47:40;;;;;;;2.28;1.65;;;8.70;99.90;;;;;;4996814;28;20037;-73
2022/04/06 03:50:07;;;;;;;1.58;1.42;;;8.70;99.90;;;;;;4987292;28;20114;-73
2022/04/06 03:52:32;;;;;;;1.92;1.83;;;8.70;99.90;;;;;;5013894;28;20049;-72
2022/04/06 03:54:58;;;;;;;3.60;2.35;;;8.70;99.90;;;;;;5029588;28;20048;-72
2022/04/06 03:57:25;;;;;;;2.17;1.60;;;8.70;99.90;;;;;;5030593;28;20103;-72
2022/04/06 03:59:51;;;;;;;1.73;1.63;;;8.70;99.90;;;;;;5013556;28;20175;-73
2022/04/06 04:02:17;;;;;;;1.92;1.80;;;8.60;99.90;;;;;;4995648;28;20498;-73
2022/04/06 04:04:43;;;;;;;1.45;1.40;;;8.60;99.90;;;;;;4996769;28;20048;-73
2022/04/06 04:07:08;;;;;;;13.82;3.67;;;8.60;99.90;;;;;;5012760;28;20052;-73
2022/04/06 04:09:35;;;;;;;5.22;2.60;;;8.50;99.90;;;;;;5011177;28;20041;-73
2022/04/06 04:12:02;;;;;;;1.77;1.67;;;8.60;99.90;;;;;;4996879;28;20045;-73
2022/04/06 04:14:29;;;;;;;1.30;1.30;;;8.50;99.90;;;;;;5013216;28;20045;-73
2022/04/06 04:16:55;;;;;;;18.05;5.65;;;8.50;99.90;;;;;;4994264;28;20036;-74
2022/04/06 04:19:21;;;;;;;3.25;2.63;;;8.50;99.90;;;;;;4994429;28;21558;-73
2022/04/06 04:21:46;;;;;;;8.43;3.50;;;8.50;99.90;;;;;;4997269;28;20492;-73
2022/04/06 04:24:12;;;;;;;14.48;3.67;;;8.50;99.90;;;;;;5013238;28;20445;-74
2022/04/06 04:26:38;;;;;;;2.72;2.10;;;8.50;99.90;;;;;;5012909;28;20064;-74
2022/04/06 04:29:05;;;;;;;1.83;1.73;;;8.50;99.90;;;;;;4996898;28;20375;-74
2022/04/06 04:31:31;;;;;;;6.53;1.65;;;8.50;99.90;;;;;;5012999;28;20064;-73
2022/04/06 04:33:57;;;;;;;2.95;2.20;;;8.50;99.90;;;;;;4995932;28;20041;-74
2022/04/06 04:36:23;;;;;;;2.00;1.90;;;8.50;99.90;;;;;;4996925;28;20045;-74
2022/04/06 04:38:49;;;;;;;1.48;1.38;;;8.50;99.90;;;;;;4989282;28;20060;-73
2022/04/06 04:41:15;;;;;;;3.67;2.38;;;8.50;99.90;;;;;;4998758;28;20120;-74
2022/04/06 04:43:40;;;;;;;3.97;2.53;;;8.50;99.90;;;;;;5027023;28;20077;-73
2022/04/06 04:46:07;;;;;;;9.07;2.45;;;8.50;99.90;;;;;;5027345;28;20042;-74
2022/04/06 04:48:33;;;;;;;8.55;3.15;;;8.50;99.90;;;;;;5012792;28;20527;-74
2022/04/06 04:50:59;;;;;;;3.15;2.92;;;8.50;99.90;;;;;;5012480;28;20124;-74
2022/04/06 04:53:25;;;;;;;2.03;1.40;;;8.50;99.90;;;;;;5012621;28;20049;-74
2022/04/06 04:55:51;;;;;;;7.18;1.98;;;8.50;99.90;;;;;;4996002;28;20030;-75
2022/04/06 04:58:17;;;;;;;3.25;1.95;;;8.50;99.90;;;;;;4995158;28;20040;-75
2022/04/06 05:00:42;;;;;;;1.10;1.10;;;8.50;99.90;;;;;;5014655;28;20311;-75
2022/04/06 05:03:08;;;;;;;5.15;3.45;;;8.50;99.90;;;;;;4995681;28;20065;-75
2022/04/06 05:05:35;;;;;;;1.85;1.75;;;8.50;99.90;;;;;;5012678;28;20530;-75
2022/04/06 05:08:01;;;;;;;5.47;4.15;;;8.50;99.90;;;;;;4995998;28;20037;-74
2022/04/06 05:10:27;;;;;;;3.63;1.52;;;8.50;99.90;;;;;;4995740;28;20106;-75
2022/04/06 05:12:53;;;;;;;1.85;1.75;;;8.40;99.90;;;;;;5012024;28;20041;-75
2022/04/06 05:15:19;;;;;;;12.65;4.68;;;8.50;99.90;;;;;;4995993;28;20041;-75
2022/04/06 05:17:45;;;;;;;1.92;1.83;;;8.50;99.90;;;;;;5009039;28;20037;-75
2022/04/06 05:20:12;;;;;;;3.88;2.13;;;8.40;99.90;;;;;;5003635;28;20052;-74
2022/04/06 05:22:38;;;;;;;1.58;1.52;;;8.40;99.90;;;;;;4993906;28;20412;-74
2022/04/06 05:25:04;;;;;;;5.75;2.50;;;8.40;99.90;;;;;;4995005;28;20433;-74
2022/04/06 05:27:31;;;;;;;2.38;1.58;;;8.40;99.90;;;;;;5007789;28;20061;-74
2022/04/06 05:29:57;;;;;;;11.55;4.30;;;8.40;99.90;;;;;;4995888;28;20049;-74
2022/04/06 05:32:23;;;;;;;5.47;1.65;;;8.40;99.90;;;;;;4989825;28;20085;-74
2022/04/06 05:34:48;;;;;;;10.48;3.75;;;8.40;99.90;;;;;;5009088;28;20087;-74
2022/04/06 05:37:14;;;;;;;1.10;1.10;;;8.40;99.90;;;;;;5009041;28;20565;-74
2022/04/06 05:39:40;;;;;;;1.83;1.65;;;8.40;99.90;;;;;;4994065;28;20487;-74
2022/04/06 05:42:05;;;;;;;8.23;4.47;;;8.40;99.90;;;;;;5010925;28;20034;-74
2022/04/06 05:44:31;;;;;;;1.73;1.63;;;8.30;99.90;;;;;;4994295;28;20034;-75
2022/04/06 05:46:57;;;;;;;15.77;4.32;;;8.30;99.90;;;;;;5010054;28;20163;-74
2022/04/06 05:49:22;;;;;;;5.28;2.78;;;8.30;99.90;;;;;;4991768;28;20075;-74
2022/04/06 05:51:49;;;;;;;8.00;3.60;;;8.30;99.90;;;;;;5008445;28;20053;-74
2022/04/06 05:54:14;;;;;;;9.90;3.58;;;8.30;99.90;;;;;;4989399;28;20453;-74
2022/04/06 05:56:40;;;;;;;1.55;1.52;;;8.30;99.90;;;;;;5009450;28;20079;-72
2022/04/06 05:59:06;;;;;;;1.85;1.75;;;8.20;99.90;;;;;;5003252;28;20406;-73
2022/04/06 06:01:32;;;;;;;1.60;1.50;;;8.20;99.90;;;;;;5008851;28;20037;-74
2022/04/06 06:03:57;;;;;;;12.70;3.17;;;8.20;99.90;;;;;;4997652;28;20076;-74
2022/04/06 06:06:23;;;;;;;1.90;1.80;;;8.20;99.90;;;;;;5016707;28;20061;-74
2022/04/06 06:08:48;;;;;;;1.10;1.05;;;8.20;99.90;;;;;;4991376;28;20049;-74
2022/04/06 06:11:14;;;;;;;6.43;3.45;;;8.20;99.90;;;;;;5011427;28;20041;-75
2022/04/06 06:13:40;;;;;;;10.73;4.22;;;8.10;99.90;;;;;;4994164;28;20041;-74
2022/04/06 06:16:06;;;;;;;8.10;5.00;;;8.20;99.90;;;;;;5016919;28;20046;-74
2022/04/06 06:18:32;;;;;;;6.22;3.40;;;8.20;99.90;;;;;;5005344;28;20044;-75
2022/04/06 06:21:00;;;;;;;9.65;4.60;;;8.20;99.90;;;;;;5010762;28;20033;-74
2022/04/06 06:23:27;;;;;;;1.13;1.13;;;8.20;99.90;;;;;;5010906;28;20427;-74
2022/04/06 06:25:52;;;;;;;2.17;1.80;;;8.20;99.90;;;;;;5010246;28;20061;-74
2022/04/06 06:28:18;;;;;;;6.40;1.83;;;8.20;99.90;;;;;;5002487;28;20049;-74
2022/04/06 06:30:45;;;;;;;3.42;2.70;;;8.20;99.90;;;;;;5010789;28;20556;-74
2022/04/06 06:33:10;;;;;;;2.60;1.40;;;8.20;99.90;;;;;;5010550;28;20053;-72
2022/04/06 06:35:36;;;;;;;11.07;3.95;;;8.20;99.90;;;;;;4979159;28;20046;-73
2022/04/06 06:38:02;;;;;;;4.28;2.47;;;8.20;99.90;;;;;;4985830;28;20037;-74
2022/04/06 06:40:28;;;;;;;5.03;2.97;;;8.20;99.90;;;;;;4983339;28;20042;-73
2022/04/06 06:42:54;;;;;;;11.05;6.05;;;8.20;99.90;;;;;;4986911;28;20509;-73
2022/04/06 06:45:20;;;;;;;1.88;1.77;;;8.20;99.90;;;;;;5008599;28;20051;-73
2022/04/06 06:47:46;;;;;;;3.90;2.30;;;8.20;99.90;;;;;;4991428;28;20060;-73
2022/04/06 06:50:14;;;;;;;2.20;1.95;;;8.20;99.90;;;;;;4985102;28;20088;-73
2022/04/06 06:52:39;;;;;;;2.45;1.85;;;8.20;99.90;;;;;;4995747;28;20045;-74
2022/04/06 06:55:07;;;;;;;1.52;1.42;;;8.20;99.90;;;;;;5000272;28;20041;-73
2022/04/06 06:57:34;;;;;;;1.33;1.30;;;8.20;99.90;;;;;;5007235;28;20087;-73
2022/04/06 06:59:59;;;;;;;3.03;2.28;;;8.20;99.90;;;;;;5002938;28;20087;-73
2022/04/06 07:02:25;;;;;;;1.88;1.77;;;8.20;99.90;;;;;;4988372;28;20038;-73
2022/04/06 07:04:51;;;;;;;9.63;2.80;;;8.20;99.90;;;;;;5006406;28;20533;-73
2022/04/06 07:07:17;;;;;;;7.30;1.75;;;8.20;99.90;;;;;;4987675;28;20041;-73
2022/04/06 07:09:42;;;;;;;2.67;1.48;;;8.20;99.90;;;;;;4992467;28;20413;-73
2022/04/06 07:12:08;;;;;;;4.70;1.77;;;8.20;99.90;;;;;;5001783;28;20088;-73
2022/04/06 07:14:34;;;;;;;9.82;2.40;;;8.30;99.90;;;;;;5027496;28;20076;-73
2022/04/06 07:17:00;;;;;;;11.88;1.30;;;8.30;99.90;;;;;;4996353;28;20061;-73
2022/04/06 07:19:26;;;;;;;6.45;1.80;;;8.30;99.90;;;;;;5006567;28;20052;-74
2022/04/06 07:21:52;;;;;;;15.27;4.03;;;8.30;99.90;;;;;;5010762;28;20040;-73
2022/04/06 07:24:17;;;;;;;1.77;1.63;;;8.30;99.90;;;;;;4994481;28;20053;-74
2022/04/06 07:26:43;;;;;;;6.35;2.53;;;8.30;99.90;;;;;;4994187;28;20073;-74
2022/04/06 07:29:11;;;;;;;1.02;1.02;;;8.30;99.90;;;;;;4994734;28;20072;-74
2022/04/06 07:31:38;;;;;;;2.20;1.98;;;8.30;99.90;;;;;;5009812;28;20057;-74
2022/04/06 07:34:05;;;;;;;3.42;2.60;;;8.30;99.90;;;;;;4994468;28;20065;-73
2022/04/06 07:36:32;;;;;;;1.35;1.25;;;8.30;99.90;;;;;;5010357;28;20049;-73
2022/04/06 07:38:59;;;;;;;3.35;1.48;;;8.30;99.90;;;;;;5006584;28;20041;-74
2022/04/06 07:41:25;;;;;;;1.00;1.00;;;8.30;99.90;;;;;;4991343;28;20046;-73
2022/04/06 07:43:51;;;;;;;2.88;1.77;;;8.30;99.90;;;;;;4991883;28;20393;-74
2022/04/06 07:46:16;;;;;;;5.90;1.88;;;8.30;99.90;;;;;;4975124;28;20042;-74
2022/04/06 07:48:42;;;;;;;1.02;1.02;;;8.30;99.90;;;;;;4977593;28;20299;-74
2022/04/06 07:51:08;;;;;;;4.78;2.13;;;8.30;99.90;;;;;;5010697;28;20127;-73
2022/04/06 07:53:33;;;;;;;1.33;1.33;;;8.30;99.90;;;;;;5010542;28;20123;-73
2022/04/06 07:55:59;;;;;;;3.80;2.70;;;8.30;99.90;;;;;;4990524;28;20140;-73
2022/04/06 07:58:25;;;;;;;6.72;2.50;;;8.30;99.90;;;;;;5008577;28;20611;-73
2022/04/06 08:00:50;;;;;;;2.72;2.00;;;8.40;99.90;;;;;;5009492;28;20450;-73
2022/04/06 08:03:16;;;;;;;23.02;4.28;;;8.40;99.90;;;;;;4989670;28;20048;-73
2022/04/06 08:05:42;;;;;;;2.42;2.00;;;8.50;99.90;;;;;;5013170;28;20037;-75
2022/04/06 08:08:07;;;;;;;2.00;1.85;;;8.50;99.90;;;;;;4991209;28;20042;-74
2022/04/06 08:10:33;;;;;;;4.00;1.63;;;8.50;99.90;;;;;;4990946;28;20054;-74
2022/04/06 08:12:59;;;;;;;3.10;1.50;;;8.40;99.90;;;;;;5008847;28;20042;-74
2022/04/06 08:15:25;;;;;;;4.68;2.30;;;8.50;99.90;;;;;;4997864;28;20048;-74
2022/04/06 08:17:50;;;;;;;3.33;1.42;;;8.40;99.90;;;;;;4997676;28;20469;-74
2022/04/06 08:20:18;;;;;;;1.70;1.60;;;8.40;99.90;;;;;;5013424;28;20034;-74
2022/04/06 08:22:46;;;;;;;12.43;4.70;;;8.50;99.90;;;;;;5010080;28;20077;-74
2022/04/06 08:25:13;;;;;;;1.13;0.95;;;8.50;99.90;;;;;;4994154;28;20490;-74
2022/04/06 08:27:41;;;;;;;9.07;3.78;;;8.50;99.90;;;;;;5000177;28;20099;-73
2022/04/06 08:30:08;;;;;;;1.00;1.00;;;8.50;99.90;;;;;;4996451;28;20072;-74
2022/04/06 08:32:34;;;;;;;2.08;1.83;;;8.50;99.90;;;;;;5009287;28;20041;-74
2022/04/06 08:35:00;;;;;;;2.88;1.33;;;8.50;99.90;;;;;;5027288;28;20041;-74
2022/04/06 08:37:38;;;;;;;1.02;1.02;;;8.50;99.90;;;;;;5012456;28;20046;-74
2022/04/06 08:40:06;;;;;;;2.40;2.20;;;8.50;99.90;;;;;;5011606;28;20041;-74
2022/04/06 08:42:41;;;;;;;2.30;1.45;;;8.50;99.90;;;;;;4995546;28;20605;-75
2022/04/06 08:45:08;;;;;;;2.35;1.52;;;8.60;99.90;;;;;;5012006;28;20451;-75
2022/04/06 08:47:34;;;;;;;5.55;2.63;;;8.60;99.90;;;;;;4981157;28;20054;-75
2022/04/06 08:50:03;;;;;;;1.70;1.60;;;8.70;99.90;;;;;;4995960;28;20409;-75
2022/04/06 08:52:33;;;;;;;21.60;3.75;;;8.70;99.90;;;;;;5006585;28;20502;-75
2022/04/06 08:54:59;;;;;;;14.40;3.97;;;8.70;99.90;;;;;;5009332;28;20110;-74
2022/04/06 08:57:29;;;;;;;4.90;2.20;;;8.80;99.90;;;;;;4997919;28;20504;-74
2022/04/06 08:59:55;;;;;;;9.60;2.22;;;8.80;99.90;;;;;;4995603;28;20041;-74
2022/04/06 09:02:22;;;;;;;1.42;1.33;;;8.90;99.90;;;;;;4997537;28;20056;-75
2022/04/06 09:04:55;;;;;;;10.77;2.88;;;9.00;99.90;;;;;;4996479;28;20056;-74
2022/04/06 09:07:22;;;;;;;3.20;2.35;;;9.10;99.90;;;;;;5008470;28;20045;-74
2022/04/06 09:09:50;;;;;;;41.85;3.85;;;9.30;99.90;;;;;;5012641;28;20075;-74
2022/04/06 09:12:18;;;;;;;2.38;1.50;;;9.30;99.90;;;;;;5012757;28;20128;-73
2022/04/06 09:14:44;;;;;;;10.02;2.58;;;9.40;99.90;;;;;;5012378;28;20042;-74
2022/04/06 09:17:09;;;;;;;1.30;1.13;;;9.50;99.90;;;;;;5011153;28;20038;-74
2022/04/06 09:19:46;;;;;;;6.10;2.17;;;9.60;99.90;;;;;;4996847;28;20748;-74
2022/04/06 09:22:11;;;;;;;12.40;3.17;;;9.70;99.90;;;;;;4984388;28;20115;-73
2022/04/06 09:24:37;;;;;;;8.80;2.47;;;9.80;99.90;;;;;;4996061;28;20034;-74
2022/04/06 09:27:04;;;;;;;5.20;1.20;;;9.90;99.90;;;;;;5004176;28;20042;-74
2022/04/06 09:29:31;;;;;;;1.48;1.35;;;10.00;99.90;;;;;;5011403;28;20148;-75
2022/04/06 09:32:06;;;;;;;4.32;1.65;;;10.10;99.90;;;;;;4990984;28;20046;-74
2022/04/06 09:34:33;;;;;;;16.13;2.70;;;10.10;99.90;;;;;;4988181;28;20042;-74
2022/04/06 09:36:58;;;;;;;2.67;2.05;;;10.10;99.90;;;;;;5004891;28;20468;-75
2022/04/06 09:39:48;;;;;;;9.85;3.15;;;10.20;99.90;;;;;;4987323;28;20128;-73
2022/04/06 09:42:24;;;;;;;1.38;1.33;;;10.20;99.90;;;;;;4990524;28;20048;-74
2022/04/06 09:47:40;;;;;;;9.93;2.85;;;10.40;99.90;;;;;;5023797;28;20045;-73
2022/04/06 09:50:22;;;;;;;4.70;1.98;;;10.40;99.90;;;;;;5011270;28;20042;-74
2022/04/06 09:52:51;;;;;;;4.80;2.72;;;10.40;99.90;;;;;;4989911;28;20064;-74
2022/04/06 09:55:17;;;;;;;5.78;3.15;;;10.40;99.90;;;;;;5005324;28;20048;-73
2022/04/06 09:57:51;;;;;;;1.85;1.67;;;10.40;99.90;;;;;;5007636;28;20457;-74
2022/04/06 10:00:19;;;;;;;7.75;4.05;;;10.30;99.90;;;;;;4995439;28;20041;-74
2022/04/06 10:02:48;;;;;;;5.30;1.77;;;10.40;99.90;;;;;;5006833;28;20064;-73
2022/04/06 10:05:17;;;;;;;11.05;2.50;;;10.30;99.90;;;;;;5010035;28;20457;-74
2022/04/06 10:07:43;;;;;;;1.58;1.45;;;10.40;99.90;;;;;;4987724;28;20549;-74
2022/04/06 10:10:12;;;;;;;2.15;1.95;;;10.30;99.90;;;;;;5002547;28;20069;-74
2022/04/06 10:12:39;;;;;;;7.10;2.65;;;10.30;99.90;;;;;;5002135;28;20119;-74
2022/04/06 10:15:05;;;;;;;2.35;1.30;;;10.30;99.90;;;;;;5003603;28;20049;-73
2022/04/06 10:17:32;;;;;;;3.60;1.83;;;10.20;99.90;;;;;;5000671;28;20390;-73
2022/04/06 10:20:35;;;;;;;1.95;1.77;;;10.10;99.90;;;;;;4991333;28;20087;-72
2022/04/06 10:23:18;;;;;;;;;;;10.10;99.90;;;;;;4990464;28;20498;-73
2022/04/06 10:26:04;;;;;;;2.58;2.38;;;10.20;99.90;;;;;;5017406;28;19921;-74
2022/04/06 10:28:34;;;;;;;8.55;2.83;;;10.20;99.90;;;;;;4994483;28;20135;-73
2022/04/06 10:31:11;;;;;;;9.85;4.32;;;10.20;99.90;;;;;;5002394;28;20042;-73
2022/04/06 10:33:37;;;;;;;8.30;2.40;;;10.10;99.90;;;;;;5006555;28;20532;-73
2022/04/06 10:36:21;;;;;;;6.05;1.95;;;10.10;99.90;;;;;;5002967;28;20034;-73
2022/04/06 10:39:07;;;;;;;;;;;10.00;99.90;;;;;;5007155;28;20075;-74
2022/04/06 10:41:34;;;;;;;2.28;2.17;;;10.00;99.90;;;;;;4997752;28;20327;-74
2022/04/06 10:44:00;;;;;;;2.28;2.08;;;10.00;99.90;;;;;;4988938;28;20037;-74
2022/04/06 10:46:38;;;;;;;1.88;1.77;;;10.00;99.90;;;;;;4997190;28;20631;-74
2022/04/06 10:49:07;;;;;;;6.93;2.03;;;10.00;99.90;;;;;;4990093;28;20084;-74
2022/04/06 10:51:35;;;;;;;4.72;2.35;;;9.90;99.90;;;;;;5000348;28;20133;-75
2022/04/06 10:54:13;;;;;;;4.45;3.25;;;9.90;99.90;;;;;;4984055;28;20042;-74
2022/04/06 10:56:50;;;;;;;1.95;1.85;;;9.90;99.90;;;;;;5000385;28;20115;-74
2022/04/06 10:59:21;;;;;;;2.10;2.00;;;9.90;99.90;;;;;;5004905;28;20045;-74
2022/04/06 11:01:48;;;;;;;11.55;3.58;;;9.90;99.90;;;;;;4990129;28;20041;-74
2022/04/06 11:04:23;;;;;;;5.13;2.08;;;10.00;99.90;;;;;;5007390;28;20080;-74
2022/04/06 11:06:56;;;;;;;1.15;1.15;;;10.00;99.90;;;;;;5006916;28;20060;-73
2022/04/06 11:12:24;;;;;;;5.65;1.83;;;10.00;99.90;;;;;;4997206;28;19921;-73
2022/04/06 11:15:10;;;;;;;2.53;2.33;;;10.00;99.90;;;;;;5005970;28;20045;-73
2022/04/06 11:17:38;;;;;;;5.15;2.75;;;10.00;99.90;;;;;;5005420;28;20038;-73
2022/04/06 11:20:10;;;;;;;6.30;3.10;;;10.10;99.90;;;;;;4990089;28;20040;-73
2022/04/06 11:22:40;;;;;;;19.67;3.95;;;10.20;99.90;;;;;;4998994;28;20316;-73
2022/04/06 11:25:08;;;;;;;3.38;2.78;;;10.40;99.90;;;;;;4994398;28;20061;-73
2022/04/06 11:27:35;;;;;;;9.88;2.13;;;10.60;99.90;;;;;;4985366;28;20045;-75
2022/04/06 11:30:13;;;;;;;9.27;2.78;;;10.80;99.90;;;;;;5000279;28;20053;-73
2022/04/06 11:32:40;;;;;;;3.40;2.38;;;11.10;99.90;;;;;;4994146;28;20034;-74
2022/04/06 11:35:10;;;;;;;7.25;3.13;;;11.40;99.90;;;;;;4986023;28;20430;-74
2022/04/06 11:37:48;;;;;;;5.32;2.85;;;11.50;99.90;;;;;;4989683;28;20053;-74
2022/04/06 11:40:20;;;;;;;23.02;3.22;;;11.60;99.90;;;;;;4991906;28;20037;-74
2022/04/06 11:42:53;;;;;;;1.63;1.40;;;11.80;99.90;;;;;;5014416;28;20041;-74
2022/04/06 11:45:24;;;;;;;3.58;2.10;;;12.20;99.90;;;;;;5026450;28;20041;-73
2022/04/06 11:47:58;;;;;;;4.13;2.05;;;12.40;99.90;;;;;;4995257;28;20048;-73
2022/04/06 11:50:29;;;;;;;3.58;1.58;;;12.30;99.90;;;;;;4996533;28;20440;-74
2022/04/06 11:52:55;;;;;;;2.45;2.17;;;12.40;99.90;;;;;;5013877;28;20374;-74
2022/04/06 11:55:38;;;;;;;9.55;3.40;;;12.50;99.90;;;;;;5013929;28;20044;-74
2022/04/06 11:58:03;;;;;;;10.63;3.58;;;12.60;99.90;;;;;;5014303;28;20037;-74
2022/04/06 12:00:29;;;;;;;14.57;4.97;;;12.80;99.90;;;;;;4997912;28;20037;-73
2022/04/06 12:02:56;;;;;;;8.10;2.80;;;12.80;99.90;;;;;;5012538;28;20037;-74
2022/04/06 12:05:23;;;;;;;3.40;2.00;;;12.90;99.90;;;;;;4996960;28;20045;-73
2022/04/06 12:08:08;;;;;;;4.95;2.70;;;13.00;99.90;;;;;;4993450;28;20753;-73
2022/04/06 12:10:33;;;;;;;1.50;1.40;;;13.00;99.90;;;;;;4995580;28;20045;-73
2022/04/06 12:12:59;;;;;;;7.10;2.17;;;12.90;99.90;;;;;;4994572;28;20125;-73
2022/04/06 12:15:25;;;;;;;9.52;3.05;;;12.80;99.90;;;;;;4977871;28;20092;-74
2022/04/06 12:17:51;;;;;;;10.70;3.17;;;12.60;99.90;;;;;;4997471;28;20037;-73
2022/04/06 12:20:27;;;;;;;6.93;1.85;;;12.60;99.90;;;;;;5010420;28;20552;-74
2022/04/06 12:23:03;;;;;;;5.47;1.77;;;12.30;99.90;;;;;;4998222;28;20057;-74
2022/04/06 12:25:31;;;;;;;12.13;3.83;;;12.20;99.90;;;;;;5013194;28;20111;-73
2022/04/06 12:28:23;;;;;;;14.35;3.65;;;12.30;99.90;;;;;;5011815;28;20111;-73
2022/04/06 12:30:57;;;;;;;14.63;2.88;;;12.30;99.90;;;;;;5012159;28;20129;-73
2022/04/06 12:33:47;;;;;;;1.13;1.13;;;12.30;99.90;;;;;;5003551;28;20057;-73
2022/04/06 12:36:27;;;;;;;8.25;1.67;;;12.30;99.90;;;;;;5006075;28;20131;-73
2022/04/06 12:39:09;;;;;;;10.48;3.35;;;12.10;99.90;;;;;;4990472;28;20048;-73
2022/04/06 12:41:53;;;;;;;2.78;1.85;;;12.10;99.90;;;;;;5011971;28;20042;-73
2022/04/06 12:44:19;;;;;;;10.50;3.58;;;11.90;99.90;;;;;;5012828;28;20513;-73
2022/04/06 12:46:47;;;;;;;5.97;1.52;;;12.00;99.90;;;;;;5012713;28;20045;-73
2022/04/06 12:49:24;;;;;;;5.13;2.67;;;12.00;99.90;;;;;;5013192;28;20405;-74
2022/04/06 12:52:09;;;;;;;2.13;1.90;;;12.10;99.90;;;;;;4996262;28;20044;-73
2022/04/06 12:54:37;;;;;;;2.97;1.98;;;12.10;99.90;;;;;;5029332;28;20045;-73
2022/04/06 12:57:25;;;;;;;1.58;1.48;;;12.20;99.90;;;;;;5012769;28;20045;-73
2022/04/06 13:00:03;;;;;;;13.40;4.45;;;12.20;99.90;;;;;;5011678;28;20045;-73
2022/04/06 13:02:31;;;;;;;6.85;3.63;;;12.10;99.90;;;;;;4996198;28;20102;-74
2022/04/06 13:05:09;;;;;;;4.35;2.17;;;12.10;99.90;;;;;;5013059;28;20793;-73